createdAt,value
2018-05-14T00:00:49.913Z,75.10
2018-05-14T00:03:17.454Z,75.40
2018-05-14T00:05:45.785Z,74.40
2018-05-14T00:08:13.334Z,74.30
2018-05-14T00:10:40.897Z,74.10
2018-05-14T00:13:08.432Z,74.30
2018-05-14T00:15:35.988Z,73.70
2018-05-14T00:18:03.521Z,73.80
2018-05-14T00:20:31.853Z,74.40
2018-05-14T00:22:59.388Z,74.30
2018-05-14T00:25:26.940Z,74.70
2018-05-14T00:27:54.474Z,74.60
2018-05-14T00:30:22.041Z,75.20
2018-05-14T00:32:50.339Z,75.40
2018-05-14T00:35:17.919Z,75.40
2018-05-14T00:37:45.470Z,75.30
2018-05-14T00:40:13.003Z,75.40
2018-05-14T00:42:41.330Z,75.40
2018-05-14T00:45:08.864Z,75.40
2018-05-14T00:47:36.482Z,75.80
2018-05-14T00:50:04.038Z,75.60
2018-05-14T00:52:31.631Z,76.00
2018-05-14T00:55:18.215Z,76.00
2018-05-14T00:57:46.647Z,76.60
2018-05-14T01:00:14.112Z,76.50
2018-05-14T01:02:41.677Z,77.20
2018-05-14T01:05:09.218Z,77.50
2018-05-14T01:07:36.790Z,77.80
2018-05-14T01:10:04.326Z,77.60
2018-05-14T01:12:31.902Z,77.70
2018-05-14T01:14:59.443Z,77.60
2018-05-14T01:17:27.008Z,77.70
2018-05-14T01:19:54.637Z,78.10
2018-05-14T01:22:22.196Z,78.20
2018-05-14T01:24:55.328Z,78.10
2018-05-14T01:27:22.885Z,78.20
2018-05-14T01:29:50.423Z,78.40
2018-05-14T01:32:17.980Z,78.90
2018-05-14T01:34:46.284Z,79.20
2018-05-14T01:37:13.853Z,79.00
2018-05-14T01:39:41.401Z,79.00
2018-05-14T01:42:08.965Z,78.70
2018-05-14T01:44:36.504Z,78.70
2018-05-14T01:47:04.846Z,79.40
2018-05-14T01:49:32.382Z,79.30
2018-05-14T01:51:59.936Z,79.60
2018-05-14T01:54:28.239Z,79.70
2018-05-14T01:56:55.804Z,79.60
2018-05-14T01:59:23.338Z,79.90
2018-05-14T02:01:50.884Z,79.90
2018-05-14T02:04:18.456Z,79.60
2018-05-14T02:06:46.057Z,79.20
2018-05-14T02:09:13.576Z,79.20
2018-05-14T02:11:41.113Z,79.30
2018-05-14T02:14:09.441Z,79.30
2018-05-14T02:16:36.968Z,79.30
2018-05-14T02:19:04.528Z,79.40
2018-05-14T02:21:32.062Z,79.20
2018-05-14T02:24:00.392Z,79.40
2018-05-14T02:26:27.927Z,79.30
2018-05-14T02:28:55.498Z,79.60
2018-05-14T02:31:23.031Z,79.70
2018-05-14T02:33:51.370Z,79.40
2018-05-14T02:36:18.898Z,79.30
2018-05-14T02:38:46.461Z,79.20
2018-05-14T02:41:13.997Z,79.10
2018-05-14T02:43:41.560Z,79.00
2018-05-14T02:46:09.094Z,78.90
2018-05-14T02:48:37.421Z,79.30
2018-05-14T02:51:04.955Z,79.30
2018-05-14T02:53:32.520Z,79.30
2018-05-14T02:56:00.066Z,79.30
2018-05-14T02:58:28.358Z,79.10
2018-05-14T03:00:55.917Z,79.00
2018-05-14T03:03:23.455Z,78.90
2018-05-14T03:05:51.781Z,79.00
2018-05-14T03:08:19.309Z,78.90
2018-05-14T03:10:46.889Z,78.80
2018-05-14T03:13:15.190Z,79.00
2018-05-14T03:15:42.741Z,78.90
2018-05-14T03:18:10.316Z,78.80
2018-05-14T03:20:37.867Z,79.00
2018-05-14T03:23:05.411Z,79.10
2018-05-14T03:25:32.970Z,79.10
2018-05-14T03:28:00.507Z,79.10
2018-05-14T03:30:28.061Z,79.00
2018-05-14T03:32:56.357Z,78.80
2018-05-14T03:35:23.920Z,78.70
2018-05-14T03:37:51.455Z,78.30
2018-05-14T03:40:19.775Z,78.80
2018-05-14T03:42:47.302Z,78.80
2018-05-14T03:45:14.859Z,79.00
2018-05-14T03:47:43.162Z,79.10
2018-05-14T03:50:10.737Z,79.00
2018-05-14T03:52:38.273Z,79.00
2018-05-14T03:55:05.878Z,78.70
2018-05-14T03:57:33.390Z,79.10
2018-05-14T04:03:12.000Z,80.00
2018-05-14T04:05:51.465Z,79.20
2018-05-14T04:08:19.798Z,79.30
2018-05-14T04:10:47.344Z,79.30
2018-05-14T04:13:14.875Z,79.40
2018-05-14T04:15:42.439Z,79.20
2018-05-14T04:18:09.969Z,79.20
2018-05-14T04:20:38.265Z,79.30
2018-05-14T04:23:05.821Z,79.20
2018-05-14T04:25:33.337Z,79.10
2018-05-14T04:28:00.885Z,79.10
2018-05-14T04:30:28.412Z,79.00
2018-05-14T04:32:55.973Z,79.00
2018-05-14T04:35:23.513Z,78.90
2018-05-14T04:37:51.833Z,78.00
2018-05-14T04:40:19.364Z,78.00
2018-05-14T04:42:46.929Z,77.80
2018-05-14T04:45:14.456Z,77.60
2018-05-14T04:47:42.005Z,77.20
2018-05-14T04:50:09.538Z,77.00
2018-05-14T04:52:37.084Z,76.90
2018-05-14T04:55:04.604Z,76.60
2018-05-14T04:57:32.924Z,76.20
2018-05-14T05:00:00.457Z,76.20
2018-05-14T05:02:28.770Z,75.80
2018-05-14T05:04:56.329Z,75.80
2018-05-14T05:07:23.951Z,75.50
2018-05-14T05:09:51.497Z,75.40
2018-05-14T05:12:19.819Z,75.00
2018-05-14T05:14:47.347Z,74.90
2018-05-14T05:17:15.679Z,74.60
2018-05-14T05:19:43.232Z,74.60
2018-05-14T05:22:10.760Z,74.70
2018-05-14T05:24:38.332Z,74.30
2018-05-14T05:27:05.858Z,74.00
2018-05-14T05:29:34.181Z,73.60
2018-05-14T05:32:01.713Z,73.60
2018-05-14T05:34:29.267Z,73.30
2018-05-14T05:36:56.804Z,73.00
2018-05-14T05:39:24.364Z,72.80
2018-05-14T05:41:51.954Z,73.00
2018-05-14T05:44:20.263Z,72.20
2018-05-14T05:46:47.812Z,72.20
2018-05-14T05:49:15.356Z,72.10
2018-05-14T05:51:42.880Z,71.80
2018-05-14T05:54:11.215Z,71.60
2018-05-14T05:56:38.821Z,71.80
2018-05-14T05:59:06.360Z,71.50
2018-05-14T06:01:34.789Z,71.30
2018-05-14T06:04:03.207Z,70.80
2018-05-14T06:06:30.732Z,70.80
2018-05-14T06:08:59.051Z,71.00
2018-05-14T06:11:26.581Z,70.90
2018-05-14T06:13:54.128Z,70.60
2018-05-14T06:16:22.413Z,70.50
2018-05-14T06:18:49.960Z,70.40
2018-05-14T06:21:18.254Z,70.10
2018-05-14T06:23:45.816Z,70.10
2018-05-14T06:26:13.346Z,69.90
2018-05-14T06:28:40.872Z,69.80
2018-05-14T06:31:08.421Z,69.80
2018-05-14T06:33:35.975Z,69.40
2018-05-14T06:36:03.527Z,69.20
2018-05-14T06:38:31.048Z,69.20
2018-05-14T06:40:58.599Z,69.10
2018-05-14T06:43:26.112Z,68.80
2018-05-14T06:45:53.659Z,68.80
2018-05-14T06:48:21.200Z,68.80
2018-05-14T06:50:49.517Z,67.80
2018-05-14T06:53:17.040Z,67.80
2018-05-14T06:55:45.357Z,67.30
2018-05-14T06:58:12.885Z,67.20
2018-05-14T07:00:40.432Z,67.40
2018-05-14T07:03:08.798Z,67.00
2018-05-14T07:05:36.296Z,66.90
2018-05-14T07:08:03.816Z,66.80
2018-05-14T07:10:31.359Z,66.50
2018-05-14T07:12:58.936Z,66.50
2018-05-14T07:15:26.493Z,65.80
2018-05-14T07:17:54.033Z,65.60
2018-05-14T07:20:21.581Z,66.20
2018-05-14T07:22:49.103Z,65.00
2018-05-14T07:25:16.643Z,65.20
2018-05-14T07:27:44.936Z,65.00
2018-05-14T07:30:13.294Z,64.80
2018-05-14T07:32:40.802Z,64.80
2018-05-14T07:35:08.356Z,64.70
2018-05-14T07:37:35.878Z,64.20
2018-05-14T07:40:04.201Z,64.50
2018-05-14T07:42:31.729Z,64.40
2018-05-14T07:45:00.046Z,62.90
2018-05-14T07:47:27.573Z,62.90
2018-05-14T07:49:55.137Z,63.10
2018-05-14T07:52:22.669Z,63.00
2018-05-14T07:54:50.199Z,62.60
2018-05-14T07:57:17.744Z,62.30
2018-05-14T07:59:46.036Z,61.40
2018-05-14T08:02:13.583Z,61.30
2018-05-14T08:04:41.118Z,61.20
2018-05-14T08:07:08.660Z,61.00
2018-05-14T08:09:36.955Z,60.60
2018-05-14T08:12:04.501Z,60.50
2018-05-14T08:14:32.794Z,59.70
2018-05-14T08:17:00.337Z,59.70
2018-05-14T08:19:28.633Z,59.30
2018-05-14T08:21:56.184Z,59.30
2018-05-14T08:24:23.718Z,59.10
2018-05-14T08:26:51.273Z,58.70
2018-05-14T08:29:18.793Z,58.40
2018-05-14T08:31:46.348Z,58.10
2018-05-14T08:34:13.872Z,57.90
2018-05-14T08:36:42.185Z,57.40
2018-05-14T08:39:09.712Z,57.30
2018-05-14T08:41:38.087Z,56.40
2018-05-14T08:44:05.576Z,56.40
2018-05-14T08:46:33.124Z,56.10
2018-05-14T08:49:00.649Z,55.80
2018-05-14T08:51:28.210Z,55.60
2018-05-14T08:53:55.741Z,55.40
2018-05-14T08:56:23.290Z,55.30
2018-05-14T08:58:50.817Z,54.90
2018-05-14T09:01:19.143Z,54.50
2018-05-14T09:03:46.664Z,54.50
2018-05-14T09:06:14.221Z,54.00
2018-05-14T09:08:41.818Z,54.10
2018-05-14T09:11:09.328Z,53.60
2018-05-14T09:13:37.641Z,52.80
2018-05-14T09:16:05.164Z,52.80
2018-05-14T09:18:33.485Z,52.20
2018-05-14T09:21:01.020Z,52.30
2018-05-14T09:23:28.565Z,52.20
2018-05-14T09:25:56.860Z,51.60
2018-05-14T09:28:24.417Z,51.50
2018-05-14T09:30:51.949Z,50.90
2018-05-14T09:33:20.264Z,51.10
2018-05-14T09:35:47.789Z,51.00
2018-05-14T09:38:16.106Z,50.10
2018-05-14T09:40:43.626Z,50.10
2018-05-14T09:43:11.952Z,50.10
2018-05-14T09:45:39.479Z,49.40
2018-05-14T09:48:07.796Z,49.10
2018-05-14T09:50:35.316Z,49.20
2018-05-14T09:53:03.627Z,48.00
2018-05-14T09:55:31.144Z,48.00
2018-05-14T09:57:59.456Z,47.40
2018-05-14T10:00:26.974Z,47.30
2018-05-14T10:02:55.300Z,47.00
2018-05-14T10:05:22.828Z,47.00
2018-05-14T10:07:51.112Z,46.20
2018-05-14T10:10:18.668Z,46.10
2018-05-14T10:12:46.957Z,45.50
2018-05-14T10:15:14.504Z,45.40
2018-05-14T10:17:42.796Z,44.80
2018-05-14T10:20:10.348Z,44.80
2018-05-14T10:22:37.873Z,44.30
2018-05-14T10:25:05.424Z,43.90
2018-05-14T10:27:32.948Z,43.60
2018-05-14T10:30:00.511Z,43.30
2018-05-14T10:32:28.038Z,42.60
2018-05-14T10:34:56.349Z,43.10
2018-05-14T10:37:23.877Z,42.40
2018-05-14T10:39:52.192Z,40.90
2018-05-14T10:42:19.721Z,40.90
2018-05-14T10:44:47.271Z,40.30
2018-05-14T10:47:15.564Z,40.20
2018-05-14T10:49:43.109Z,40.20
2018-05-14T10:52:11.397Z,39.50
2018-05-14T10:54:38.954Z,39.60
2018-05-14T10:57:07.245Z,38.50
2018-05-14T10:59:34.792Z,38.50
2018-05-14T11:02:03.083Z,38.00
2018-05-14T11:04:30.636Z,38.10
2018-05-14T11:06:58.165Z,37.70
2018-05-14T11:09:25.724Z,37.00
2018-05-14T11:11:53.249Z,36.60
2018-05-14T11:14:20.772Z,36.10
2018-05-14T11:16:48.333Z,36.00
2018-05-14T11:19:15.853Z,35.60
2018-05-14T11:21:43.400Z,35.30
2018-05-14T11:24:10.917Z,35.20
2018-05-14T11:26:38.471Z,35.00
2018-05-14T11:29:05.997Z,34.70
2018-05-14T11:31:33.540Z,34.90
2018-05-14T11:34:01.064Z,34.30
2018-05-14T11:36:28.607Z,33.70
2018-05-14T11:38:56.138Z,33.70
2018-05-14T11:41:23.692Z,33.30
2018-05-14T11:43:51.216Z,32.90
2018-05-14T11:46:18.760Z,32.80
2018-05-14T11:48:46.284Z,32.30
2018-05-14T11:51:13.834Z,32.10
2018-05-14T11:53:41.807Z,31.80
2018-05-14T11:56:09.355Z,31.70
2018-05-14T11:58:36.923Z,31.60
2018-05-14T12:01:04.467Z,31.40
2018-05-14T12:03:31.993Z,31.10
2018-05-14T12:05:59.545Z,30.90
2018-05-14T12:08:27.068Z,31.10
2018-05-14T12:10:54.630Z,30.50
2018-05-14T12:13:22.161Z,31.20
2018-05-14T12:15:49.676Z,30.00
2018-05-14T12:18:17.211Z,29.80
2018-05-14T12:20:44.732Z,29.80
2018-05-14T12:23:12.284Z,29.70
2018-05-14T12:25:39.881Z,29.50
2018-05-14T12:28:07.389Z,29.10
2018-05-14T12:30:34.917Z,29.10
2018-05-14T12:33:03.241Z,29.20
2018-05-14T12:35:30.760Z,29.20
2018-05-14T12:37:59.073Z,28.60
2018-05-14T12:40:26.601Z,28.60
2018-05-14T12:42:54.912Z,28.40
2018-05-14T12:45:22.444Z,28.40
2018-05-14T12:47:49.999Z,28.40
2018-05-14T12:50:18.288Z,27.90
2018-05-14T12:52:45.830Z,27.90
2018-05-14T12:55:14.124Z,27.80
2018-05-14T12:57:42.432Z,27.80
2018-05-14T13:00:09.958Z,27.80
2018-05-14T13:02:38.272Z,27.30
2018-05-14T13:05:05.804Z,27.30
2018-05-14T13:07:33.352Z,27.20
2018-05-14T13:10:01.644Z,27.10
2018-05-14T13:12:29.201Z,27.00
2018-05-14T13:14:56.728Z,27.10
2018-05-14T13:17:24.257Z,27.10
2018-05-14T13:19:51.807Z,27.10
2018-05-14T13:22:19.320Z,27.00
2018-05-14T13:24:47.638Z,26.90
2018-05-14T13:27:15.160Z,26.80
2018-05-14T13:29:43.479Z,26.90
2018-05-14T13:32:11.011Z,26.90
2018-05-14T13:34:38.566Z,26.80
2018-05-14T13:37:06.852Z,26.50
2018-05-14T13:39:34.399Z,26.50
2018-05-14T13:42:02.696Z,26.40
2018-05-14T13:44:30.346Z,26.30
2018-05-14T13:46:58.568Z,26.10
2018-05-14T13:49:26.126Z,26.20
2018-05-14T13:51:53.645Z,25.90
2018-05-14T13:54:21.200Z,26.00
2018-05-14T13:56:49.541Z,25.80
2018-05-14T13:59:17.094Z,25.80
2018-05-14T14:01:44.612Z,25.70
2018-05-14T14:04:12.162Z,25.70
2018-05-14T14:06:40.452Z,25.60
2018-05-14T14:09:08.000Z,25.60
2018-05-14T14:11:36.300Z,25.40
2018-05-14T14:14:03.851Z,25.50
2018-05-14T14:16:31.368Z,25.60
2018-05-14T14:18:58.925Z,25.70
2018-05-14T14:21:26.448Z,25.60
2018-05-14T14:23:54.947Z,25.20
2018-05-14T14:26:22.308Z,25.30
2018-05-14T14:28:49.837Z,25.30
2018-05-14T14:31:17.381Z,25.20
2018-05-14T14:33:44.917Z,25.20
2018-05-14T14:36:13.338Z,25.50
2018-05-14T14:38:40.777Z,25.50
2018-05-14T14:41:08.329Z,25.50
2018-05-14T14:43:36.629Z,25.10
2018-05-14T14:46:04.188Z,25.10
2018-05-14T14:48:31.720Z,24.90
2018-05-14T14:51:00.037Z,24.80
2018-05-14T14:53:27.559Z,24.80
2018-05-14T14:55:55.891Z,24.90
2018-05-14T14:58:23.427Z,25.00
2018-05-14T15:00:50.996Z,25.10
2018-05-14T15:03:18.516Z,25.10
2018-05-14T15:05:46.060Z,25.00
2018-05-14T15:08:13.583Z,24.80
2018-05-14T15:10:41.133Z,24.70
2018-05-14T15:13:08.670Z,24.70
2018-05-14T15:15:36.233Z,24.80
2018-05-14T15:18:03.763Z,24.90
2018-05-14T15:20:31.281Z,24.90
2018-05-14T15:22:58.838Z,24.90
2018-05-14T15:25:26.358Z,24.90
2018-05-14T15:27:54.678Z,24.70
2018-05-14T15:30:22.213Z,24.70
2018-05-14T15:32:49.773Z,24.50
2018-05-14T15:35:17.300Z,24.40
2018-05-14T15:37:44.847Z,24.30
2018-05-14T15:40:12.373Z,24.10
2018-05-14T15:42:39.932Z,23.90
2018-05-14T15:45:07.457Z,23.80
2018-05-14T15:47:35.010Z,23.60
2018-05-14T15:50:03.353Z,23.30
2018-05-14T15:52:30.879Z,23.30
2018-05-14T15:54:58.409Z,23.20
2018-05-14T15:57:26.732Z,22.80
2018-05-14T15:59:54.256Z,22.80
2018-05-14T16:02:22.569Z,22.60
2018-05-14T16:04:50.090Z,22.60
2018-05-14T16:07:17.641Z,22.50
2018-05-14T16:09:45.947Z,22.50
2018-05-14T16:12:13.505Z,22.50
2018-05-14T16:14:41.114Z,22.60
2018-05-14T16:17:09.367Z,22.30
2018-05-14T16:19:36.898Z,22.30
2018-05-14T16:22:04.433Z,22.50
2018-05-14T16:24:31.973Z,22.60
2018-05-14T16:26:59.509Z,23.00
2018-05-14T16:29:27.076Z,22.50
2018-05-14T16:31:54.596Z,22.70
2018-05-14T16:34:22.168Z,22.60
2018-05-14T16:36:49.689Z,22.60
2018-05-14T16:39:17.251Z,22.70
2018-05-14T16:41:44.785Z,22.90
2018-05-14T16:44:12.338Z,23.20
2018-05-14T16:46:39.868Z,23.40
2018-05-14T16:49:07.416Z,23.70
2018-05-14T16:51:34.948Z,23.90
2018-05-14T16:54:02.497Z,24.10
2018-05-14T16:56:30.664Z,24.30
2018-05-14T16:58:58.291Z,24.50
2018-05-14T17:01:25.827Z,24.60
2018-05-14T17:03:54.169Z,25.10
2018-05-14T17:06:21.692Z,25.10
2018-05-14T17:08:49.238Z,25.30
2018-05-14T17:11:16.768Z,25.40
2018-05-14T17:13:44.317Z,25.50
2018-05-14T17:16:11.840Z,25.60
2018-05-14T17:18:39.393Z,25.70
2018-05-14T17:21:06.928Z,25.80
2018-05-14T17:23:35.217Z,25.90
2018-05-14T17:26:02.766Z,25.90
2018-05-14T17:28:31.060Z,26.10
2018-05-14T17:30:58.632Z,26.10
2018-05-14T17:33:26.162Z,26.20
2018-05-14T17:35:54.478Z,25.90
2018-05-14T17:38:22.013Z,25.90
2018-05-14T17:40:49.570Z,25.70
2018-05-14T17:43:17.093Z,25.70
2018-05-14T17:45:44.648Z,25.90
2018-05-14T17:48:12.172Z,26.20
2018-05-14T17:50:39.726Z,26.50
2018-05-14T17:53:07.252Z,26.90
2018-05-14T17:55:35.564Z,27.30
2018-05-14T17:58:03.848Z,27.50
2018-05-14T18:00:31.405Z,27.50
2018-05-14T18:02:58.936Z,27.60
2018-05-14T18:05:27.265Z,28.00
2018-05-14T18:07:54.792Z,28.00
2018-05-14T18:10:22.340Z,28.20
2018-05-14T18:12:50.623Z,28.70
2018-05-14T18:15:18.184Z,28.60
2018-05-14T18:17:45.760Z,28.90
2018-05-14T18:20:26.534Z,29.20
2018-05-14T18:22:54.056Z,29.10
2018-05-14T18:25:28.104Z,29.50
2018-05-14T18:28:01.476Z,29.50
2018-05-14T18:30:29.034Z,29.60
2018-05-14T18:33:02.612Z,29.80
2018-05-14T18:35:35.760Z,30.00
2018-05-14T18:38:03.280Z,30.10
2018-05-14T18:40:31.569Z,30.50
2018-05-14T18:43:00.158Z,30.50
2018-05-14T18:45:28.536Z,30.70
2018-05-14T18:47:56.088Z,30.70
2018-05-14T18:50:24.377Z,31.10
2018-05-14T18:52:51.932Z,31.00
2018-05-14T18:55:19.458Z,31.40
2018-05-14T18:57:47.000Z,31.60
2018-05-14T19:00:14.529Z,31.80
2018-05-14T19:02:42.093Z,31.90
2018-05-14T19:05:09.621Z,31.90
2018-05-14T19:07:37.165Z,31.90
2018-05-14T19:10:11.072Z,32.20
2018-05-14T19:12:38.619Z,32.20
2018-05-14T19:15:11.930Z,32.30
2018-05-14T19:17:45.116Z,32.40
2018-05-14T19:20:13.703Z,33.10
2018-05-14T19:22:47.110Z,32.60
2018-05-14T19:25:15.396Z,32.70
2018-05-14T19:27:49.459Z,32.80
2018-05-14T19:30:16.980Z,32.80
2018-05-14T19:32:44.544Z,33.00
2018-05-14T19:35:17.685Z,33.00
2018-05-14T19:37:45.233Z,33.10
2018-05-14T19:40:18.476Z,33.20
2018-05-14T19:42:46.798Z,33.20
2018-05-14T19:45:14.319Z,33.30
2018-05-14T19:47:41.840Z,33.20
2018-05-14T19:50:09.456Z,33.50
2018-05-14T19:52:36.934Z,33.50
2018-05-14T19:55:04.493Z,33.50
2018-05-14T19:57:32.934Z,33.70
2018-05-14T20:00:00.575Z,33.70
2018-05-14T20:02:28.101Z,34.00
2018-05-14T20:04:56.210Z,34.00
2018-05-14T20:07:24.516Z,34.50
2018-05-14T20:09:52.068Z,34.30
2018-05-14T20:12:19.599Z,34.40
2018-05-14T20:14:47.143Z,34.50
2018-05-14T20:17:14.664Z,34.60
2018-05-14T20:19:42.217Z,34.70
2018-05-14T20:22:09.737Z,34.80
2018-05-14T20:24:37.301Z,35.00
2018-05-14T20:27:04.825Z,35.10
2018-05-14T20:29:32.391Z,34.90
2018-05-14T20:31:59.912Z,35.10
2018-05-14T20:34:28.233Z,34.90
2018-05-14T20:36:55.760Z,34.80
2018-05-14T20:39:23.309Z,34.80
2018-05-14T20:41:51.594Z,34.80
2018-05-14T20:44:19.157Z,34.70
2018-05-14T20:46:46.694Z,34.80
2018-05-14T20:49:15.017Z,34.80
2018-05-14T20:51:42.547Z,34.80
2018-05-14T20:54:10.860Z,35.00
2018-05-14T20:56:38.426Z,35.00
2018-05-14T20:59:05.971Z,35.10
2018-05-14T21:01:33.529Z,35.00
2018-05-14T21:04:01.065Z,35.20
2018-05-14T21:06:28.616Z,35.40
2018-05-14T21:08:56.905Z,35.70
2018-05-14T21:11:24.460Z,35.60
2018-05-14T21:13:52.757Z,35.80
2018-05-14T21:16:20.313Z,35.80
2018-05-14T21:18:47.845Z,36.10
2018-05-14T21:21:16.165Z,35.80
2018-05-14T21:23:43.707Z,35.70
2018-05-14T21:26:11.260Z,35.90
2018-05-14T21:28:38.795Z,36.20
2018-05-14T21:31:06.354Z,36.50
2018-05-14T21:33:33.882Z,35.90
2018-05-14T21:36:01.438Z,36.80
2018-05-14T21:38:28.971Z,36.30
2018-05-14T21:40:56.522Z,36.40
2018-05-14T21:43:24.044Z,36.70
2018-05-14T21:45:51.588Z,36.90
2018-05-14T21:48:19.115Z,36.70
2018-05-14T21:50:46.667Z,37.00
2018-05-14T21:53:14.189Z,37.10
2018-05-14T21:55:41.772Z,37.20
2018-05-14T21:58:10.061Z,37.30
2018-05-14T22:00:37.620Z,37.30
2018-05-14T22:03:05.157Z,37.30
2018-05-14T22:05:33.482Z,38.00
2018-05-14T22:08:01.772Z,37.70
2018-05-14T22:10:29.339Z,37.70
2018-05-14T22:12:56.868Z,38.70
2018-05-14T22:15:24.434Z,38.20
2018-05-14T22:17:51.953Z,38.50
2018-05-14T22:20:20.299Z,39.00
2018-05-14T22:22:47.829Z,38.90
2018-05-14T22:25:15.360Z,38.90
2018-05-14T22:27:43.673Z,39.40
2018-05-14T22:30:11.210Z,39.40
2018-05-14T22:32:38.765Z,39.60
2018-05-14T22:35:07.057Z,40.10
2018-05-14T22:37:34.612Z,40.00
2018-05-14T22:40:02.151Z,40.10
2018-05-14T22:42:30.465Z,40.90
2018-05-14T22:44:58.001Z,40.80
2018-05-14T22:47:26.346Z,41.80
2018-05-14T22:49:53.871Z,41.70
2018-05-14T22:52:21.433Z,42.10
2018-05-14T22:54:48.963Z,42.30
2018-05-14T22:57:16.513Z,42.50
2018-05-14T22:59:44.061Z,42.60
2018-05-14T23:02:11.606Z,42.90
2018-05-14T23:04:39.133Z,42.90
2018-05-14T23:07:06.689Z,43.00
2018-05-14T23:09:34.216Z,43.20
2018-05-14T23:12:02.540Z,43.50
2018-05-14T23:14:30.070Z,43.50
2018-05-14T23:16:57.627Z,43.90
2018-05-14T23:19:25.149Z,44.00
2018-05-14T23:21:52.691Z,44.30
2018-05-14T23:24:20.217Z,44.40
2018-05-14T23:26:47.783Z,44.50
2018-05-14T23:29:15.321Z,44.70
2018-05-14T23:31:42.876Z,44.80
2018-05-14T23:34:11.169Z,45.20
2018-05-14T23:36:38.720Z,45.10
2018-05-14T23:39:07.021Z,45.80
2018-05-14T23:41:34.588Z,45.70
2018-05-14T23:44:02.126Z,45.90
2018-05-14T23:46:29.673Z,46.00
2018-05-14T23:48:57.965Z,46.40
2018-05-14T23:51:25.518Z,46.40
2018-05-14T23:53:53.037Z,46.60
2018-05-14T23:56:20.561Z,46.90
2018-05-14T23:58:48.113Z,47.10
